Time;durP1;ratioP1;P1;durP2;ratioP2;P2;SDS_P1;SDS_P2;PMS_P1;PMS_P2;Temp;Humidity;BMP_temperature;BMP_pressure;BME280_temperature;BME280_humidity;BME280_pressure;Samples;Min_cycle;Max_cycle;Signal;HPM_P1;HPM_P2
2021/05/06 00:35:48;;;;;;;10.35;1.00;;;5.80;99.90;;;;;;5882268;40;20057;-74
2021/05/06 00:40:05;;;;;;;8.43;1.63;;;5.80;99.90;;;;;;5911063;40;20049;-75
2021/05/06 00:57:50;;;;;;;4.93;0.90;;;5.70;99.90;;;;;;5904750;40;20438;-74
2021/05/06 01:02:18;;;;;;;9.68;1.80;;;6.00;99.90;;;;;;5905052;40;20182;-74
2021/05/06 01:06:25;;;;;;;12.45;1.08;;;5.60;99.90;;;;;;5906449;40;20056;-74
2021/05/06 01:14:38;;;;;;;7.22;1.30;;;5.60;99.90;;;;;;5909375;40;20060;-74
2021/05/06 01:18:45;;;;;;;5.50;1.05;;;5.60;99.90;;;;;;5910371;40;20139;-74
2021/05/06 01:22:50;;;;;;;12.75;1.42;;;5.60;99.90;;;;;;5901873;40;20057;-74
2021/05/06 01:27:18;;;;;;;10.13;1.23;;;5.60;99.90;;;;;;5909720;40;20068;-74
2021/05/06 01:31:22;;;;;;;13.88;1.67;;;5.60;99.90;;;;;;5910842;40;20126;-75
2021/05/06 01:35:45;;;;;;;7.15;1.75;;;5.60;99.90;;;;;;5914072;40;20049;-75
2021/05/06 01:40:14;;;;;;;9.43;1.00;;;5.60;99.90;;;;;;5910560;40;20052;-74
2021/05/06 02:01:46;;;;;;;3.70;0.80;;;5.50;99.90;;;;;;5902214;40;20044;-75
2021/05/06 02:05:55;;;;;;;7.43;1.10;;;5.50;99.90;;;;;;5894843;40;20517;-75
2021/05/06 02:10:00;;;;;;;7.85;1.17;;;5.50;99.90;;;;;;5895226;40;20064;-76
2021/05/06 02:14:10;;;;;;;8.13;1.40;;;5.50;99.90;;;;;;5893330;40;20135;-75
2021/05/06 02:18:24;;;;;;;9.68;1.45;;;5.50;99.90;;;;;;5900569;40;20049;-74
2021/05/06 02:22:28;;;;;;;7.82;1.42;;;5.50;99.90;;;;;;5898243;40;20064;-76
2021/05/06 02:26:34;;;;;;;7.55;0.93;;;4.90;99.90;;;;;;5902869;40;20359;-76
2021/05/06 02:30:41;;;;;;;8.27;1.30;;;5.50;99.90;;;;;;5903541;40;20442;-78
2021/05/06 02:34:47;;;;;;;14.23;1.98;;;5.50;99.90;;;;;;5902678;40;20410;-76
2021/05/06 02:38:52;;;;;;;7.53;1.90;;;5.50;99.90;;;;;;5912365;40;20044;-77
2021/05/06 02:42:58;;;;;;;11.70;2.28;;;5.40;99.90;;;;;;5910418;40;20200;-75
2021/05/06 02:47:04;;;;;;;10.15;1.63;;;5.40;99.90;;;;;;5907774;40;20061;-74
2021/05/06 02:51:11;;;;;;;12.88;2.15;;;5.40;99.90;;;;;;5909235;40;20064;-75
2021/05/06 03:03:43;;;;;;;7.50;1.42;;;5.20;99.90;;;;;;5908562;40;20143;-74
2021/05/06 03:08:12;;;;;;;14.75;2.03;;;5.20;99.90;;;;;;5909747;40;20041;-75
2021/05/06 03:25:29;;;;;;;12.35;2.10;;;5.10;99.90;;;;;;5909500;40;20048;-75
2021/05/06 03:29:43;;;;;;;12.10;1.92;;;5.20;99.90;;;;;;5911348;40;20638;-76
2021/05/06 04:18:06;;;;;;;8.63;1.55;;;4.90;99.90;;;;;;5916606;40;20101;-74
2021/05/06 04:26:29;;;;;;;13.73;2.20;;;5.00;99.90;;;;;;5908008;40;20063;-74
2021/05/06 04:39:15;;;;;;;10.85;2.25;;;5.00;99.90;;;;;;5909383;40;20060;-73
2021/05/06 05:05:00;;;;;;;13.93;2.20;;;5.00;99.90;;;;;;5908952;40;20057;-73
2021/05/06 05:17:43;;;;;;;9.10;1.95;;;5.10;99.90;;;;;;5904086;40;20060;-70
2021/05/06 05:26:03;;;;;;;13.27;1.77;;;5.20;99.90;;;;;;5906324;40;20060;-70
2021/05/06 05:30:05;;;;;;;7.25;1.42;;;5.20;99.90;;;;;;5905127;40;20284;-70
2021/05/06 05:34:28;;;;;;;13.02;1.67;;;5.30;99.90;;;;;;5908806;40;20059;-70
2021/05/06 05:38:44;;;;;;;11.10;2.50;;;5.30;99.90;;;;;;5905472;40;20053;-71
2021/05/06 05:47:35;;;;;;;;;;;5.40;99.90;;;;;;5903642;40;20091;-70
2021/05/06 05:55:36;;;;;;;13.82;1.70;;;5.30;99.90;;;;;;5905519;40;20126;-71
2021/05/06 05:59:41;;;;;;;15.68;1.92;;;5.40;99.90;;;;;;5905137;40;20045;-70
2021/05/06 06:03:47;;;;;;;13.07;2.08;;;5.50;99.90;;;;;;5901963;40;20306;-71
2021/05/06 06:07:51;;;;;;;9.20;2.40;;;5.50;99.90;;;;;;5902009;40;20060;-71
2021/05/06 06:11:58;;;;;;;7.13;1.35;;;5.60;99.90;;;;;;5902164;40;20061;-70
2021/05/06 06:16:10;;;;;;;8.10;1.30;;;5.60;99.90;;;;;;5898893;40;20491;-73
2021/05/06 06:20:17;;;;;;;7.43;1.15;;;5.60;99.90;;;;;;5899066;40;20073;-71
2021/05/06 06:24:21;;;;;;;6.43;0.93;;;5.50;99.90;;;;;;5908356;40;20076;-70
2021/05/06 06:28:37;;;;;;;9.65;1.38;;;5.50;99.90;;;;;;5910592;40;20065;-71
2021/05/06 06:32:41;;;;;;;8.63;1.45;;;5.50;99.90;;;;;;5902985;40;20352;-71
2021/05/06 06:36:46;;;;;;;7.13;1.60;;;5.60;99.90;;;;;;5899633;40;20131;-71
2021/05/06 06:40:50;;;;;;;13.43;1.75;;;5.60;99.90;;;;;;5907003;40;20064;-71
2021/05/06 06:44:56;;;;;;;8.05;1.63;;;5.60;99.90;;;;;;5912386;40;20079;-71
2021/05/06 06:49:01;;;;;;;9.38;1.77;;;5.70;99.90;;;;;;5907495;40;20051;-72
2021/05/06 06:53:08;;;;;;;11.98;1.85;;;5.70;99.90;;;;;;5903839;40;20069;-73
2021/05/06 06:57:12;;;;;;;7.47;1.20;;;5.80;99.90;;;;;;5907811;40;20089;-74
2021/05/06 07:01:23;;;;;;;7.03;1.10;;;5.90;99.90;;;;;;5905099;40;20139;-73
2021/05/06 07:05:30;;;;;;;;;;;6.00;99.90;;;;;;5908596;40;20064;-72
2021/05/06 07:09:34;;;;;;;5.97;1.10;;;6.20;99.90;;;;;;5895765;40;20209;-72
2021/05/06 07:13:36;;;;;;;7.60;1.50;;;6.90;99.90;;;;;;5905622;40;20140;-73
2021/05/06 07:17:40;;;;;;;13.57;1.40;;;6.60;99.90;;;;;;5909831;40;20138;-72
2021/05/06 07:21:49;;;;;;;5.65;0.82;;;6.60;99.90;;;;;;5911952;40;20052;-71
2021/05/06 07:25:57;;;;;;;7.53;1.13;;;6.70;99.90;;;;;;5908014;40;20073;-71
2021/05/06 07:30:07;;;;;;;5.93;0.93;;;6.80;99.90;;;;;;5907756;40;20127;-71
2021/05/06 07:34:12;;;;;;;6.35;1.33;;;7.00;99.90;;;;;;5890992;40;21395;-72
2021/05/06 07:38:19;;;;;;;5.50;1.55;;;7.10;99.80;;;;;;5906194;40;20130;-71
2021/05/06 07:42:25;;;;;;;3.17;0.75;;;7.00;99.90;;;;;;5909778;40;20061;-72
2021/05/06 07:46:31;;;;;;;6.10;1.10;;;7.10;99.90;;;;;;5915850;40;20045;-72
2021/05/06 07:50:38;;;;;;;7.28;0.90;;;7.10;99.90;;;;;;5906966;40;20742;-71
2021/05/06 07:54:48;;;;;;;5.57;1.00;;;7.30;99.90;;;;;;5914658;40;20060;-71
2021/05/06 07:58:52;;;;;;;5.80;0.95;;;7.50;99.80;;;;;;5904457;40;20155;-71
2021/05/06 08:02:57;;;;;;;7.53;0.98;;;7.60;99.60;;;;;;5906348;40;20120;-71
2021/05/06 08:07:01;;;;;;;8.90;1.35;;;7.80;99.50;;;;;;5906327;40;20063;-71
2021/05/06 08:11:08;;;;;;;8.90;1.42;;;7.80;99.00;;;;;;5905556;40;20084;-71
2021/05/06 08:15:12;;;;;;;8.80;1.52;;;7.30;99.00;;;;;;5905072;40;20056;-71
2021/05/06 08:19:19;;;;;;;10.52;1.50;;;7.50;99.60;;;;;;5899943;40;20296;-71
2021/05/06 08:23:24;;;;;;;5.90;1.20;;;7.50;99.90;;;;;;5906776;40;20131;-70
2021/05/06 08:27:27;;;;;;;7.22;1.58;;;7.40;99.90;;;;;;5905967;40;20142;-70
2021/05/06 08:31:31;;;;;;;8.90;1.50;;;7.10;99.90;;;;;;5907612;40;20158;-70
2021/05/06 08:35:36;;;;;;;6.53;1.40;;;7.50;99.90;;;;;;5897916;40;20664;-71
2021/05/06 08:39:40;;;;;;;7.50;1.50;;;7.70;99.80;;;;;;5904731;40;20096;-70
2021/05/06 08:43:58;;;;;;;10.25;1.30;;;7.70;99.50;;;;;;5907385;40;20429;-70
2021/05/06 08:48:04;;;;;;;6.75;1.83;;;7.90;99.70;;;;;;5907115;40;20072;-70
2021/05/06 08:52:11;;;;;;;7.30;1.95;;;7.90;99.70;;;;;;5908458;40;20057;-72
2021/05/06 08:56:16;;;;;;;6.57;1.00;;;7.90;99.40;;;;;;5903358;40;20059;-72
2021/05/06 09:00:21;;;;;;;3.55;0.95;;;7.50;99.20;;;;;;5903842;40;20084;-72
2021/05/06 09:04:26;;;;;;;7.53;1.20;;;7.10;99.80;;;;;;5906263;40;20120;-72
2021/05/06 09:08:36;;;;;;;6.95;1.15;;;6.90;99.90;;;;;;5906218;40;20529;-72
2021/05/06 09:12:40;;;;;;;7.15;1.20;;;6.70;99.90;;;;;;5909495;40;20399;-72
2021/05/06 09:16:49;;;;;;;10.10;1.58;;;6.60;99.90;;;;;;5905093;40;20089;-72
2021/05/06 09:20:53;;;;;;;5.53;1.05;;;6.50;99.90;;;;;;5906184;40;20548;-72
2021/05/06 09:25:26;;;;;;;6.90;1.30;;;6.60;99.90;;;;;;5902676;40;20431;-72
2021/05/06 09:29:45;;;;;;;7.07;1.60;;;6.60;99.90;;;;;;5905742;40;20339;-74
2021/05/06 09:33:52;;;;;;;9.32;1.40;;;6.80;99.90;;;;;;5906634;40;20055;-71
2021/05/06 09:37:56;;;;;;;10.57;1.45;;;6.80;99.90;;;;;;5905683;40;20060;-71
2021/05/06 09:42:08;;;;;;;8.40;1.10;;;7.20;99.90;;;;;;5899491;40;20041;-72
2021/05/06 09:46:26;;;;;;;;;;;7.50;99.90;;;;;;5913221;40;20048;-72
2021/05/06 09:50:29;;;;;;;6.45;1.10;;;7.50;99.20;;;;;;5903435;40;19945;-71
2021/05/06 09:54:43;;;;;;;4.90;1.05;;;7.00;99.80;;;;;;5909901;40;20051;-71
2021/05/06 09:58:45;;;;;;;6.10;1.25;;;7.60;99.90;;;;;;5909781;40;20472;-72
2021/05/06 10:02:57;;;;;;;5.00;1.00;;;7.80;99.90;;;;;;5909974;40;20053;-71
2021/05/06 10:07:14;;;;;;;6.70;1.00;;;8.10;99.40;;;;;;5907653;40;20237;-70
2021/05/06 10:11:22;;;;;;;6.72;0.95;;;8.20;98.70;;;;;;5906076;40;20329;-72
2021/05/06 10:15:28;;;;;;;5.32;1.08;;;8.50;98.30;;;;;;5909599;40;20052;-71
2021/05/06 10:19:37;;;;;;;7.30;0.90;;;8.20;98.80;;;;;;5908903;40;20090;-71
2021/05/06 10:23:44;;;;;;;5.32;1.10;;;8.50;98.60;;;;;;5908428;40;20041;-71
2021/05/06 10:27:49;;;;;;;7.55;1.42;;;9.20;98.00;;;;;;5907383;40;20053;-71
2021/05/06 10:31:54;;;;;;;7.57;1.90;;;8.70;97.70;;;;;;5908203;40;20064;-71
2021/05/06 10:36:01;;;;;;;6.65;1.40;;;8.60;97.50;;;;;;5919584;40;20044;-72
2021/05/06 10:40:23;;;;;;;11.93;1.83;;;8.70;98.00;;;;;;5907238;40;20071;-72
2021/05/06 10:44:37;;;;;;;7.28;1.75;;;9.10;97.50;;;;;;5906283;40;20448;-72
2021/05/06 10:48:53;;;;;;;6.22;1.20;;;9.30;96.30;;;;;;5910357;40;20052;-71
2021/05/06 10:53:00;;;;;;;9.10;1.30;;;9.00;96.10;;;;;;5906371;40;20112;-71
2021/05/06 10:57:10;;;;;;;5.80;0.98;;;8.60;97.50;;;;;;5910166;40;20052;-71
2021/05/06 11:01:14;;;;;;;8.43;1.33;;;8.50;97.40;;;;;;5898976;40;20152;-73
2021/05/06 11:05:28;;;;;;;7.72;1.30;;;8.50;97.60;;;;;;5908724;40;20061;-72
2021/05/06 11:09:36;;;;;;;6.30;1.37;;;8.80;97.60;;;;;;5910035;40;20118;-71
2021/05/06 11:14:06;;;;;;;9.32;1.45;;;9.10;97.40;;;;;;5905449;40;20048;-71
2021/05/06 11:18:15;;;;;;;9.98;1.88;;;9.20;97.10;;;;;;5909495;40;20439;-71
2021/05/06 11:22:46;;;;;;;7.80;2.20;;;9.10;97.50;;;;;;5907298;40;20073;-70
2021/05/06 11:27:10;;;;;;;10.52;1.48;;;9.00;97.00;;;;;;5904054;40;20066;-71
2021/05/06 11:31:16;;;;;;;11.10;1.83;;;8.90;97.40;;;;;;5909178;40;20070;-71
2021/05/06 11:35:20;;;;;;;9.52;1.77;;;8.70;97.50;;;;;;5909263;40;20072;-71
2021/05/06 11:39:29;;;;;;;8.98;2.22;;;8.80;97.80;;;;;;5916644;40;20068;-71
2021/05/06 11:43:40;;;;;;;12.52;2.22;;;8.80;97.90;;;;;;5909244;40;20044;-72
2021/05/06 11:47:44;;;;;;;9.05;1.73;;;9.00;97.90;;;;;;5909040;40;20055;-71
2021/05/06 11:51:48;;;;;;;13.13;1.70;;;9.30;97.40;;;;;;5907491;40;20059;-72
2021/05/06 11:55:52;;;;;;;8.52;1.83;;;9.50;95.70;;;;;;5904715;40;20049;-71
2021/05/06 11:59:57;;;;;;;5.57;1.00;;;9.20;96.20;;;;;;5912151;40;20057;-72
2021/05/06 12:04:01;;;;;;;5.35;1.00;;;8.80;97.20;;;;;;5909616;40;20045;-71
2021/05/06 12:08:06;;;;;;;7.72;1.98;;;8.40;98.00;;;;;;5916053;40;20053;-71
2021/05/06 12:12:11;;;;;;;6.78;1.50;;;8.20;98.70;;;;;;5907724;40;20125;-71
2021/05/06 12:16:23;;;;;;;13.15;1.92;;;8.30;99.00;;;;;;5907166;40;20048;-71
2021/05/06 12:20:27;;;;;;;6.43;1.60;;;8.60;98.50;;;;;;5918390;40;20061;-72
2021/05/06 12:24:40;;;;;;;13.27;1.63;;;8.90;97.60;;;;;;5906243;40;20071;-71
2021/05/06 12:28:45;;;;;;;8.55;1.45;;;8.90;97.70;;;;;;5906528;40;20055;-71
2021/05/06 12:32:53;;;;;;;10.05;1.80;;;8.90;97.60;;;;;;5909291;40;20126;-71
2021/05/06 12:37:01;;;;;;;9.00;1.58;;;8.90;97.00;;;;;;5908161;40;20044;-72
2021/05/06 12:41:09;;;;;;;6.47;1.48;;;8.90;97.20;;;;;;5910722;40;20056;-71
2021/05/06 12:45:16;;;;;;;4.57;1.25;;;9.00;97.10;;;;;;5908807;40;20049;-71
2021/05/06 12:49:26;;;;;;;6.60;1.30;;;9.00;96.90;;;;;;5908782;40;20052;-71
2021/05/06 12:53:34;;;;;;;6.68;1.17;;;9.20;96.20;;;;;;5915762;40;20041;-71
2021/05/06 12:57:41;;;;;;;8.45;1.70;;;9.40;95.50;;;;;;5921813;40;20984;-71
2021/05/06 13:01:45;;;;;;;6.88;1.52;;;9.50;95.90;;;;;;5921399;40;20052;-71
2021/05/06 13:05:49;;;;;;;7.93;1.30;;;9.60;95.70;;;;;;5920109;40;20057;-72
2021/05/06 13:09:56;;;;;;;8.35;1.52;;;9.60;95.50;;;;;;5913344;40;20352;-71
2021/05/06 13:14:04;;;;;;;6.07;1.23;;;9.50;95.80;;;;;;5919738;40;20048;-71
2021/05/06 13:18:09;;;;;;;8.30;1.55;;;9.40;95.40;;;;;;5919588;40;20064;-72
2021/05/06 13:22:18;;;;;;;7.13;1.33;;;9.30;95.10;;;;;;5916674;40;20130;-71
2021/05/06 13:26:36;;;;;;;9.65;1.85;;;9.30;95.40;;;;;;5916306;40;20052;-71
2021/05/06 13:30:40;;;;;;;7.63;1.40;;;8.50;95.10;;;;;;5915785;40;20097;-71
2021/05/06 13:34:54;;;;;;;11.35;1.80;;;9.20;95.50;;;;;;5905800;40;20059;-72
2021/05/06 13:39:00;;;;;;;8.77;1.55;;;9.50;95.50;;;;;;5914575;40;20061;-71
2021/05/06 13:43:09;;;;;;;7.60;1.58;;;9.10;95.30;;;;;;5908291;40;20098;-71
2021/05/06 13:47:13;;;;;;;7.45;1.42;;;9.20;94.50;;;;;;5906869;40;20099;-71
2021/05/06 13:51:19;;;;;;;9.05;1.33;;;9.40;94.70;;;;;;5904328;40;20052;-72
2021/05/06 13:55:23;;;;;;;9.13;2.00;;;9.50;94.30;;;;;;5902806;40;20379;-71
2021/05/06 13:59:27;;;;;;;8.85;1.13;;;9.70;94.10;;;;;;5909800;40;20370;-72
2021/05/06 14:03:32;;;;;;;8.10;1.90;;;9.90;93.00;;;;;;5905018;40;20056;-71
2021/05/06 14:07:36;;;;;;;10.38;1.42;;;9.80;93.80;;;;;;5905533;40;20057;-71
2021/05/06 14:11:47;;;;;;;7.47;1.50;;;9.60;93.90;;;;;;5906441;40;20053;-72
2021/05/06 14:15:52;;;;;;;5.50;1.20;;;9.30;93.80;;;;;;5906408;40;20064;-71
2021/05/06 14:19:56;;;;;;;7.30;1.85;;;9.30;95.10;;;;;;5914046;40;20171;-72
2021/05/06 14:24:00;;;;;;;6.30;1.48;;;9.30;95.30;;;;;;5907148;40;20052;-71
2021/05/06 14:28:06;;;;;;;7.50;1.02;;;9.30;94.40;;;;;;5907896;40;20052;-72
2021/05/06 14:32:10;;;;;;;4.70;0.88;;;9.00;94.70;;;;;;5904922;40;20041;-72
2021/05/06 14:36:14;;;;;;;4.95;1.27;;;8.80;95.20;;;;;;5907937;40;20056;-72
2021/05/06 14:40:18;;;;;;;11.13;1.70;;;8.90;95.70;;;;;;5910641;40;20052;-72
2021/05/06 14:44:22;;;;;;;10.50;2.10;;;8.80;95.10;;;;;;5908503;40;20065;-72
2021/05/06 14:48:29;;;;;;;7.15;1.50;;;8.80;95.20;;;;;;5907590;40;20057;-71
2021/05/06 14:52:34;;;;;;;8.52;1.30;;;8.80;94.80;;;;;;5906828;40;20063;-72
2021/05/06 14:56:38;;;;;;;8.20;1.40;;;8.90;93.80;;;;;;5910516;40;20060;-72
2021/05/06 15:00:43;;;;;;;9.73;1.60;;;9.00;94.10;;;;;;5913707;40;20069;-72
2021/05/06 15:04:47;;;;;;;8.50;1.50;;;9.10;93.90;;;;;;5908481;40;20059;-72
2021/05/06 15:08:51;;;;;;;9.10;1.25;;;9.30;93.90;;;;;;5905422;40;20115;-72
2021/05/06 15:12:58;;;;;;;8.88;2.03;;;9.10;93.70;;;;;;5900427;40;20044;-72
2021/05/06 15:17:02;;;;;;;10.30;1.92;;;9.10;94.00;;;;;;5906035;40;20572;-72
2021/05/06 15:21:06;;;;;;;6.82;1.40;;;9.10;93.90;;;;;;5906807;40;20365;-72
2021/05/06 15:25:11;;;;;;;11.73;2.15;;;9.60;94.20;;;;;;5910027;40;20052;-72
2021/05/06 15:29:15;;;;;;;6.47;1.88;;;9.10;93.90;;;;;;5908372;40;20073;-72
2021/05/06 15:33:22;;;;;;;10.02;1.50;;;9.20;93.80;;;;;;5909433;40;20053;-72
2021/05/06 15:37:27;;;;;;;12.50;1.83;;;9.30;93.20;;;;;;5907820;40;20529;-72
2021/05/06 15:41:32;;;;;;;8.65;1.52;;;9.40;93.50;;;;;;5905197;40;20056;-72
2021/05/06 15:45:41;;;;;;;10.38;1.20;;;9.30;93.20;;;;;;5905110;40;20436;-72
2021/05/06 15:49:42;;;;;;;9.25;2.05;;;9.30;92.50;;;;;;5906998;40;20051;-72
2021/05/06 15:53:49;;;;;;;8.70;1.38;;;9.10;92.40;;;;;;5909936;40;20665;-72
2021/05/06 15:57:53;;;;;;;9.55;1.70;;;9.10;92.80;;;;;;5906153;40;20321;-72
2021/05/06 16:01:57;;;;;;;13.15;1.67;;;9.00;93.00;;;;;;5904739;40;20052;-72
2021/05/06 16:06:03;;;;;;;5.53;1.30;;;9.00;92.60;;;;;;5904211;40;20063;-72
2021/05/06 16:10:09;;;;;;;5.80;1.02;;;8.90;92.70;;;;;;5906671;40;20569;-72
2021/05/06 16:14:13;;;;;;;11.43;1.70;;;8.90;92.90;;;;;;5910609;40;20053;-72
2021/05/06 16:18:20;;;;;;;7.30;1.30;;;8.80;92.80;;;;;;5904569;40;20069;-71
2021/05/06 16:22:27;;;;;;;8.68;1.30;;;8.90;93.40;;;;;;5900823;40;20073;-72
2021/05/06 16:26:32;;;;;;;9.45;1.75;;;9.00;93.00;;;;;;5904275;40;20067;-72
2021/05/06 16:30:39;;;;;;;6.15;1.20;;;9.00;92.90;;;;;;5906886;40;20064;-72
2021/05/06 16:34:46;;;;;;;7.55;1.45;;;9.10;92.90;;;;;;5906520;40;20150;-72
2021/05/06 16:39:06;;;;;;;8.65;1.45;;;9.10;92.20;;;;;;5905818;40;20600;-72
2021/05/06 16:43:16;;;;;;;12.00;1.55;;;9.00;92.20;;;;;;5905035;40;20074;-71
2021/05/06 16:47:18;;;;;;;6.57;1.50;;;8.90;92.70;;;;;;5903569;40;20053;-71
2021/05/06 16:51:26;;;;;;;10.68;1.50;;;8.90;92.50;;;;;;5907679;40;20151;-72
2021/05/06 16:55:35;;;;;;;9.27;1.63;;;8.80;92.80;;;;;;5906302;40;20060;-71
2021/05/06 16:59:42;;;;;;;7.03;1.45;;;8.80;93.10;;;;;;5904151;40;20037;-71
2021/05/06 17:03:51;;;;;;;13.18;1.50;;;8.80;93.30;;;;;;5905079;40;20045;-71
2021/05/06 17:07:58;;;;;;;10.88;1.50;;;8.80;93.60;;;;;;5905722;40;20081;-72
2021/05/06 17:12:04;;;;;;;9.60;1.77;;;8.80;93.20;;;;;;5909424;40;20055;-71
2021/05/06 17:16:09;;;;;;;10.77;2.33;;;8.70;93.40;;;;;;5910279;40;20175;-71
2021/05/06 17:20:16;;;;;;;4.90;1.20;;;8.60;93.80;;;;;;5912258;40;20055;-72
2021/05/06 17:24:23;;;;;;;7.90;1.40;;;8.60;93.70;;;;;;5903145;40;20100;-71
2021/05/06 17:28:27;;;;;;;6.45;1.20;;;8.50;93.50;;;;;;5905670;40;20077;-71
2021/05/06 17:32:32;;;;;;;9.98;1.45;;;8.50;93.10;;;;;;5909105;40;20045;-71
2021/05/06 17:36:38;;;;;;;8.57;1.70;;;8.40;93.80;;;;;;5906664;40;20057;-71
2021/05/06 17:40:40;;;;;;;8.70;1.65;;;8.30;94.00;;;;;;5905411;40;20089;-72
2021/05/06 17:44:49;;;;;;;11.27;1.63;;;8.30;94.10;;;;;;5907036;40;20141;-72
2021/05/06 17:48:53;;;;;;;9.80;2.08;;;8.30;93.80;;;;;;5905539;40;20061;-72
2021/05/06 17:52:58;;;;;;;9.95;1.90;;;8.30;93.90;;;;;;5907229;40;20048;-72
2021/05/06 17:57:04;;;;;;;8.90;1.40;;;8.20;93.60;;;;;;5905345;40;20057;-72
2021/05/06 18:01:13;;;;;;;5.88;1.10;;;8.10;93.70;;;;;;5904063;40;20053;-72
2021/05/06 18:05:17;;;;;;;9.93;1.38;;;8.10;93.80;;;;;;5902831;40;20134;-72
2021/05/06 18:09:29;;;;;;;11.57;2.17;;;8.10;93.80;;;;;;5906267;40;20049;-72
2021/05/06 18:13:33;;;;;;;13.38;1.30;;;8.00;94.00;;;;;;5912226;40;20078;-72
2021/05/06 18:17:40;;;;;;;11.65;1.40;;;8.00;94.30;;;;;;5906898;40;20063;-73
2021/05/06 18:21:47;;;;;;;8.43;1.50;;;7.90;94.30;;;;;;5910393;40;20073;-74
2021/05/06 18:25:55;;;;;;;5.60;1.50;;;7.90;94.30;;;;;;5909059;40;20057;-75
2021/05/06 18:30:06;;;;;;;8.60;1.77;;;7.80;94.40;;;;;;5907584;40;20305;-71
2021/05/06 18:34:10;;;;;;;12.98;1.65;;;7.80;94.30;;;;;;5901216;40;20077;-73
2021/05/06 18:38:16;;;;;;;7.72;1.20;;;7.70;94.30;;;;;;5895649;40;20072;-73
2021/05/06 18:42:20;;;;;;;13.45;1.85;;;7.70;94.40;;;;;;5901613;40;20297;-74
2021/05/06 18:52:13;;;;;;;8.48;1.70;;;7.60;94.50;;;;;;5894344;40;20040;-73
2021/05/06 18:56:22;;;;;;;7.55;1.95;;;7.50;94.80;;;;;;5901474;40;20041;-73
2021/05/06 19:00:26;;;;;;;9.15;1.40;;;7.40;94.70;;;;;;5912616;40;20053;-72
2021/05/06 19:04:32;;;;;;;7.80;1.60;;;7.40;94.70;;;;;;5911595;40;20440;-73
2021/05/06 19:08:39;;;;;;;10.02;1.92;;;7.40;94.60;;;;;;5918173;40;20131;-73
2021/05/06 19:12:45;;;;;;;9.63;1.92;;;7.30;94.60;;;;;;5904309;40;20100;-73
2021/05/06 19:16:53;;;;;;;9.07;2.42;;;7.30;94.70;;;;;;5899831;40;20041;-73
2021/05/06 19:20:56;;;;;;;9.75;2.45;;;7.20;94.80;;;;;;5909991;40;20045;-73
2021/05/06 19:25:00;;;;;;;6.90;2.15;;;6.20;94.60;;;;;;5907652;40;23170;-72
2021/05/06 19:29:05;;;;;;;8.10;2.22;;;7.00;94.90;;;;;;5897253;40;20057;-72
2021/05/06 19:33:14;;;;;;;10.27;2.63;;;6.90;95.00;;;;;;5901451;40;20089;-74
2021/05/06 19:37:18;;;;;;;8.23;1.60;;;6.80;95.10;;;;;;5910240;40;20114;-74
2021/05/06 19:41:28;;;;;;;5.97;1.77;;;6.70;95.20;;;;;;5901750;40;20045;-74
2021/05/06 19:49:52;;;;;;;10.68;2.03;;;6.60;95.50;;;;;;5909119;40;20049;-73
2021/05/06 19:53:59;;;;;;;8.23;2.35;;;6.50;95.50;;;;;;5912354;40;20045;-74
2021/05/06 19:58:03;;;;;;;8.27;1.85;;;6.60;95.80;;;;;;5916598;40;20115;-73
2021/05/06 20:02:07;;;;;;;8.30;2.00;;;6.50;95.40;;;;;;5916139;40;20151;-73
2021/05/06 20:06:11;;;;;;;6.50;1.88;;;6.50;95.50;;;;;;5911545;40;20366;-73
2021/05/06 20:10:20;;;;;;;7.90;1.70;;;6.40;95.50;;;;;;5913479;40;20057;-73
2021/05/06 20:14:30;;;;;;;7.93;2.10;;;6.40;95.50;;;;;;5917624;40;20045;-74
2021/05/06 20:18:35;;;;;;;9.45;1.77;;;6.30;95.50;;;;;;5898959;40;20065;-74
2021/05/06 20:22:42;;;;;;;17.38;2.22;;;6.20;95.60;;;;;;5897037;40;20041;-74
2021/05/06 20:26:46;;;;;;;11.50;2.33;;;6.10;95.70;;;;;;5888870;40;20057;-74
2021/05/06 20:30:55;;;;;;;5.22;1.67;;;6.10;95.70;;;;;;5891537;40;20060;-74
2021/05/06 20:35:01;;;;;;;9.20;3.60;;;6.00;95.70;;;;;;5897792;40;20089;-74
2021/05/06 20:39:16;;;;;;;7.10;1.95;;;6.00;95.80;;;;;;5902451;40;20052;-73
2021/05/06 20:43:20;;;;;;;6.15;1.50;;;5.90;95.80;;;;;;5908375;40;20088;-73
2021/05/06 20:47:27;;;;;;;11.25;2.03;;;5.80;95.80;;;;;;5887303;40;20067;-73
2021/05/06 20:51:31;;;;;;;7.70;2.13;;;5.80;95.80;;;;;;5898584;40;20061;-73
2021/05/06 20:55:36;;;;;;;12.05;3.42;;;5.80;95.80;;;;;;5896654;40;21439;-74
2021/05/06 20:59:44;;;;;;;10.85;3.00;;;5.70;95.70;;;;;;5904913;40;20751;-74
2021/05/06 21:03:51;;;;;;;11.80;3.72;;;5.70;95.70;;;;;;5899440;40;20065;-74
2021/05/06 21:07:58;;;;;;;7.47;2.72;;;5.60;95.80;;;;;;5915634;40;20523;-74
2021/05/06 21:12:07;;;;;;;9.65;2.50;;;5.50;95.80;;;;;;5907485;40;20052;-73
2021/05/06 21:16:12;;;;;;;9.63;2.55;;;5.40;95.90;;;;;;5900878;40;20049;-73
2021/05/06 21:20:16;;;;;;;11.38;3.90;;;5.40;96.00;;;;;;5890082;40;20061;-72
2021/05/06 21:24:21;;;;;;;13.80;3.15;;;5.40;96.00;;;;;;5910537;40;20061;-71
2021/05/06 21:28:30;;;;;;;10.80;2.50;;;5.30;95.90;;;;;;5909936;40;20106;-72
2021/05/06 21:32:34;;;;;;;7.38;2.50;;;5.30;96.00;;;;;;5902241;40;20075;-72
2021/05/06 21:36:39;;;;;;;10.57;3.30;;;5.20;96.00;;;;;;5902862;40;20056;-73
2021/05/06 21:40:42;;;;;;;10.55;2.83;;;5.20;96.10;;;;;;5908427;40;20063;-72
2021/05/06 21:44:47;;;;;;;10.20;2.25;;;5.20;96.10;;;;;;5908492;40;20085;-72
2021/05/06 21:48:55;;;;;;;6.63;2.03;;;5.20;96.10;;;;;;5899334;40;20049;-72
2021/05/06 21:53:02;;;;;;;12.23;2.35;;;5.20;96.10;;;;;;5899678;40;20507;-73
2021/05/06 21:57:08;;;;;;;6.13;2.03;;;5.20;96.10;;;;;;5913932;40;20094;-74
2021/05/06 22:01:10;;;;;;;9.13;2.43;;;5.20;96.10;;;;;;5906805;40;20080;-74
2021/05/06 22:05:18;;;;;;;6.40;1.92;;;5.20;96.00;;;;;;5903524;40;20502;-74
2021/05/06 22:09:20;;;;;;;10.48;2.30;;;5.20;96.00;;;;;;5907318;40;20751;-75
2021/05/06 22:13:28;;;;;;;6.20;2.10;;;5.20;96.10;;;;;;5909653;40;20045;-74
2021/05/06 22:17:32;;;;;;;9.23;2.08;;;5.20;96.10;;;;;;5911536;40;20040;-74
2021/05/06 22:21:37;;;;;;;8.13;1.98;;;5.20;96.10;;;;;;5905484;40;20052;-75
2021/05/06 22:25:44;;;;;;;6.85;2.40;;;5.10;96.00;;;;;;5911580;40;20331;-74
2021/05/06 22:29:50;;;;;;;7.00;2.10;;;5.00;96.00;;;;;;5914092;40;20093;-73
2021/05/06 22:33:54;;;;;;;6.13;1.90;;;4.90;96.10;;;;;;5916119;40;20146;-73
2021/05/06 22:38:03;;;;;;;8.73;2.10;;;4.90;96.10;;;;;;5907449;40;20067;-72
2021/05/06 22:42:10;;;;;;;7.93;2.20;;;4.90;96.50;;;;;;5906836;40;20075;-72
2021/05/06 22:46:16;;;;;;;5.45;2.20;;;4.80;96.30;;;;;;5912172;40;20087;-73
2021/05/06 22:50:21;;;;;;;5.35;1.77;;;4.90;96.30;;;;;;5919918;40;20048;-74
2021/05/06 22:54:24;;;;;;;4.05;1.10;;;4.80;96.20;;;;;;5904486;40;20048;-74
2021/05/06 22:58:28;;;;;;;2.55;0.90;;;4.60;96.40;;;;;;5913064;40;20076;-74
2021/05/06 23:02:35;;;;;;;4.45;0.70;;;4.60;96.30;;;;;;5901611;40;20053;-74
2021/05/06 23:06:40;;;;;;;3.67;0.85;;;4.50;96.30;;;;;;5910990;40;20572;-74
2021/05/06 23:10:49;;;;;;;6.05;0.90;;;4.50;96.40;;;;;;5903771;40;20057;-73
2021/05/06 23:14:53;;;;;;;5.22;0.98;;;4.50;96.40;;;;;;5894653;40;20440;-73
2021/05/06 23:18:59;;;;;;;5.35;1.30;;;4.60;96.30;;;;;;5907504;40;20056;-74
2021/05/06 23:23:04;;;;;;;4.43;0.98;;;4.70;96.30;;;;;;5914682;40;20120;-74
2021/05/06 23:27:17;;;;;;;5.75;1.20;;;4.50;96.20;;;;;;5915463;40;20135;-74
2021/05/06 23:31:22;;;;;;;9.13;1.60;;;4.60;96.20;;;;;;5914265;40;20079;-74
2021/05/06 23:35:26;;;;;;;5.28;1.20;;;4.50;96.20;;;;;;5903017;40;20076;-74
2021/05/06 23:39:33;;;;;;;4.63;1.23;;;4.50;96.20;;;;;;5911982;40;20047;-74
2021/05/06 23:43:37;;;;;;;8.52;1.30;;;4.50;96.30;;;;;;5911626;40;20065;-75
2021/05/06 23:47:42;;;;;;;4.10;1.17;;;4.50;96.30;;;;;;5897472;40;20932;-75
2021/05/06 23:51:46;;;;;;;6.60;1.17;;;4.40;96.30;;;;;;5902164;40;20052;-75
2021/05/06 23:55:55;;;;;;;4.88;1.58;;;4.40;96.60;;;;;;5897900;40;20048;-75
2021/05/06 23:59:59;;;;;;;4.55;1.15;;;4.30;96.50;;;;;;5897141;40;20444;-75
